Gandhi — A8OK8 — position and weather

sailwx.info

Track history (hours):
 
Tides and Currents Weather Stations Pressure Air Temp Water Temp Dewpoint Dewpoint Depression Visibility Wind Speed Wind Dir Waves Ship Positions

Gandhi

Last reported at 2014-Sep-13 21:09 UTC. Time now 2014-Sep-18 11:38 UTC.
Position N 40°57' E 028°53'.

Length 180 m; draft 7.2 m.

Type: Ship. MMSI: 636013645.

Date/timePositionNaut miles runAvg speedWind from/ knotsBaromVisibWave heightAir tempDewpointWater temp
2014-Sep-13 21:09N 40°57' E 028°53'0 0.0
2014-Sep-13 18:27N 40°57' E 028°53'0 0.0
2014-Sep-13 17:15N 40°57' E 028°53'0 0.0
2014-Sep-13 15:33N 40°57' E 028°53'5 0.5
2014-Sep-13 05:33N 40°52' E 028°51'14711.9
2014-Sep-12 17:09N 39°50' E 025°55'5 1.3
2014-Sep-12 13:31N 39°46' E 025°51'2814.1
2014-Sep-12 11:33N 39°19' E 025°45'2014.1
2014-Sep-12 10:09N 38°59' E 025°45'813.9
2014-Sep-12 09:33N 38°51' E 025°43'1413.6
2014-Sep-12 08:33N 38°37' E 025°43'1413.7
2014-Sep-12 07:33N 38°24' E 025°44'1414.5
2014-Sep-12 06:33N 38°09' E 025°46'1312.6
2014-Sep-12 05:33N 37°57' E 025°47'2110.5
2014-Sep-12 03:33N 37°36' E 025°50'9 8.9
2014-Sep-12 02:33N 37°28' E 025°54'1010.1
2014-Sep-12 01:33N 37°22' E 026°05'1010.0
2014-Sep-12 00:33N 37°16' E 026°15'10 9.8
2014-Sep-11 23:33N 37°11' E 026°25'10 9.9
2014-Sep-11 22:32N 37°05' E 026°36'10 9.8
2014-Sep-11 21:33N 36°56' E 026°40'39 9.3
2014-Sep-11 17:23N 36°19' E 026°51'  
2014-Sep-04 16:25N 36°52' E 026°19'1212.1
2014-Sep-04 15:27N 37°02' E 026°11'1112.1
2014-Sep-04 14:33N 37°11' E 026°05'1312.3
2014-Sep-04 13:28N 37°24' E 025°57'1212.1
2014-Sep-04 12:31N 37°34' E 025°52'  
Track history (hours):
 
Tides and Currents Weather Stations Pressure Air Temp Water Temp Dewpoint Dewpoint Depression Visibility Wind Speed Wind Dir Waves Ship Positions

Gandhi

Last reported at 2014-Sep-13 21:09 UTC. Time now 2014-Sep-18 11:38 UTC.
Position N 40°57' E 028°53'.

Length 180 m; draft 7.2 m.

Type: Ship. MMSI: 636013645.

Date/timePositionNaut miles runAvg speedWind from/ knotsBaromVisibWave heightAir tempDewpointWater temp
2014-Sep-13 21:09N 40°57' E 028°53'0 0.0
2014-Sep-13 18:27N 40°57' E 028°53'0 0.0
2014-Sep-13 17:15N 40°57' E 028°53'0 0.0
2014-Sep-13 15:33N 40°57' E 028°53'5 0.5
2014-Sep-13 05:33N 40°52' E 028°51'14711.9
2014-Sep-12 17:09N 39°50' E 025°55'5 1.3
2014-Sep-12 13:31N 39°46' E 025°51'2814.1
2014-Sep-12 11:33N 39°19' E 025°45'2014.1
2014-Sep-12 10:09N 38°59' E 025°45'813.9
2014-Sep-12 09:33N 38°51' E 025°43'1413.6
2014-Sep-12 08:33N 38°37' E 025°43'1413.7
2014-Sep-12 07:33N 38°24' E 025°44'1414.5
2014-Sep-12 06:33N 38°09' E 025°46'1312.6
2014-Sep-12 05:33N 37°57' E 025°47'2110.5
2014-Sep-12 03:33N 37°36' E 025°50'9 8.9
2014-Sep-12 02:33N 37°28' E 025°54'1010.1
2014-Sep-12 01:33N 37°22' E 026°05'1010.0
2014-Sep-12 00:33N 37°16' E 026°15'10 9.8
2014-Sep-11 23:33N 37°11' E 026°25'10 9.9
2014-Sep-11 22:32N 37°05' E 026°36'10 9.8
2014-Sep-11 21:33N 36°56' E 026°40'39 9.3
2014-Sep-11 17:23N 36°19' E 026°51'  
2014-Sep-04 16:25N 36°52' E 026°19'1212.1
2014-Sep-04 15:27N 37°02' E 026°11'1112.1
2014-Sep-04 14:33N 37°11' E 026°05'1312.3
2014-Sep-04 13:28N 37°24' E 025°57'1212.1
2014-Sep-04 12:31N 37°34' E 025°52'  

Dump ship's entire track history